sensor_id;sensor_type;location;lat;lon;timestamp;temperature;humidity
28247;DHT22;66191;53.178;22.058;2023-09-18T00:02:38;16.40;99.90
28247;DHT22;66191;53.178;22.058;2023-09-18T00:05:10;16.40;99.90
28247;DHT22;66191;53.178;22.058;2023-09-18T00:07:47;16.40;99.90
28247;DHT22;66191;53.178;22.058;2023-09-18T00:10:18;16.40;99.90
28247;DHT22;66191;53.178;22.058;2023-09-18T00:12:55;16.30;99.90
28247;DHT22;66191;53.178;22.058;2023-09-18T00:15:32;16.30;99.90
28247;DHT22;66191;53.178;22.058;2023-09-18T00:18:05;16.30;99.90
28247;DHT22;66191;53.178;22.058;2023-09-18T00:20:37;16.30;99.90
28247;DHT22;66191;53.178;22.058;2023-09-18T00:23:12;16.30;99.90
28247;DHT22;66191;53.178;22.058;2023-09-18T00:25:44;16.30;99.90
28247;DHT22;66191;53.178;22.058;2023-09-18T00:28:22;16.30;99.90
28247;DHT22;66191;53.178;22.058;2023-09-18T00:30:55;16.30;99.90
28247;DHT22;66191;53.178;22.058;2023-09-18T00:33:35;16.30;99.90
28247;DHT22;66191;53.178;22.058;2023-09-18T00:36:07;16.20;99.90
28247;DHT22;66191;53.178;22.058;2023-09-18T00:38:38;16.20;99.90
28247;DHT22;66191;53.178;22.058;2023-09-18T00:41:09;16.20;99.90
28247;DHT22;66191;53.178;22.058;2023-09-18T00:43:50;16.20;99.90
28247;DHT22;66191;53.178;22.058;2023-09-18T00:46:22;16.20;99.90
28247;DHT22;66191;53.178;22.058;2023-09-18T00:49:02;16.20;99.90
28247;DHT22;66191;53.178;22.058;2023-09-18T00:51:35;16.20;99.90
28247;DHT22;66191;53.178;22.058;2023-09-18T00:54:11;16.20;99.90
28247;DHT22;66191;53.178;22.058;2023-09-18T00:56:42;16.20;99.90
28247;DHT22;66191;53.178;22.058;2023-09-18T00:59:17;16.10;99.90
28247;DHT22;66191;53.178;22.058;2023-09-18T01:02:02;16.10;99.90
28247;DHT22;66191;53.178;22.058;2023-09-18T01:04:41;16.00;99.90
28247;DHT22;66191;53.178;22.058;2023-09-18T01:07:13;16.00;99.90
28247;DHT22;66191;53.178;22.058;2023-09-18T01:09:49;16.10;99.90
28247;DHT22;66191;53.178;22.058;2023-09-18T01:12:27;16.10;99.90
28247;DHT22;66191;53.178;22.058;2023-09-18T01:15:15;16.10;99.90
28247;DHT22;66191;53.178;22.058;2023-09-18T01:17:52;16.20;99.90
28247;DHT22;66191;53.178;22.058;2023-09-18T01:20:31;16.20;99.90
28247;DHT22;66191;53.178;22.058;2023-09-18T01:23:06;16.20;99.90
28247;DHT22;66191;53.178;22.058;2023-09-18T01:25:37;16.30;99.90
28247;DHT22;66191;53.178;22.058;2023-09-18T01:28:08;16.30;99.90
28247;DHT22;66191;53.178;22.058;2023-09-18T01:30:45;16.30;99.90
28247;DHT22;66191;53.178;22.058;2023-09-18T01:33:24;16.40;99.90
28247;DHT22;66191;53.178;22.058;2023-09-18T01:36:01;16.40;99.90
28247;DHT22;66191;53.178;22.058;2023-09-18T01:38:37;16.40;99.90
28247;DHT22;66191;53.178;22.058;2023-09-18T01:41:09;16.40;99.90
28247;DHT22;66191;53.178;22.058;2023-09-18T01:43:42;16.40;99.90
28247;DHT22;66191;53.178;22.058;2023-09-18T01:46:17;16.40;99.90
28247;DHT22;66191;53.178;22.058;2023-09-18T01:48:53;16.40;99.90
28247;DHT22;66191;53.178;22.058;2023-09-18T01:51:24;16.40;99.90
28247;DHT22;66191;53.178;22.058;2023-09-18T01:53:59;16.40;99.90
28247;DHT22;66191;53.178;22.058;2023-09-18T01:56:32;16.40;99.90
28247;DHT22;66191;53.178;22.058;2023-09-18T01:59:03;16.40;99.90
28247;DHT22;66191;53.178;22.058;2023-09-18T02:01:36;16.40;99.90
28247;DHT22;66191;53.178;22.058;2023-09-18T02:04:08;16.40;99.90
28247;DHT22;66191;53.178;22.058;2023-09-18T02:07:05;16.30;99.90
28247;DHT22;66191;53.178;22.058;2023-09-18T02:09:40;16.30;99.90
28247;DHT22;66191;53.178;22.058;2023-09-18T02:12:27;16.30;99.90
28247;DHT22;66191;53.178;22.058;2023-09-18T02:15:06;16.30;99.90
28247;DHT22;66191;53.178;22.058;2023-09-18T02:17:39;16.20;99.90
28247;DHT22;66191;53.178;22.058;2023-09-18T02:20:12;16.20;99.90
28247;DHT22;66191;53.178;22.058;2023-09-18T02:22:48;16.20;99.90
28247;DHT22;66191;53.178;22.058;2023-09-18T02:25:25;16.10;99.90
28247;DHT22;66191;53.178;22.058;2023-09-18T02:28:01;16.10;99.90
28247;DHT22;66191;53.178;22.058;2023-09-18T02:30:33;16.00;99.90
28247;DHT22;66191;53.178;22.058;2023-09-18T02:33:05;16.00;99.90
28247;DHT22;66191;53.178;22.058;2023-09-18T02:35:37;16.00;99.90
28247;DHT22;66191;53.178;22.058;2023-09-18T02:38:12;16.00;99.90
28247;DHT22;66191;53.178;22.058;2023-09-18T02:40:46;16.00;99.90
28247;DHT22;66191;53.178;22.058;2023-09-18T02:43:21;16.00;99.90
28247;DHT22;66191;53.178;22.058;2023-09-18T02:46:00;16.00;99.90
28247;DHT22;66191;53.178;22.058;2023-09-18T02:48:39;15.90;99.90
28247;DHT22;66191;53.178;22.058;2023-09-18T02:51:14;16.00;99.90
28247;DHT22;66191;53.178;22.058;2023-09-18T02:53:48;15.90;99.90
28247;DHT22;66191;53.178;22.058;2023-09-18T02:56:22;15.90;99.90
28247;DHT22;66191;53.178;22.058;2023-09-18T02:58:54;15.90;99.90
28247;DHT22;66191;53.178;22.058;2023-09-18T03:01:25;15.80;99.90
28247;DHT22;66191;53.178;22.058;2023-09-18T03:04:09;15.80;99.90
28247;DHT22;66191;53.178;22.058;2023-09-18T03:06:43;15.80;99.90
28247;DHT22;66191;53.178;22.058;2023-09-18T03:09:24;15.80;99.90
28247;DHT22;66191;53.178;22.058;2023-09-18T03:12:03;15.80;99.90
28247;DHT22;66191;53.178;22.058;2023-09-18T03:14:34;15.70;99.90
28247;DHT22;66191;53.178;22.058;2023-09-18T03:17:10;15.60;99.90
28247;DHT22;66191;53.178;22.058;2023-09-18T03:19:42;15.60;99.90
28247;DHT22;66191;53.178;22.058;2023-09-18T03:22:13;15.60;99.90
28247;DHT22;66191;53.178;22.058;2023-09-18T03:24:45;15.60;99.90
28247;DHT22;66191;53.178;22.058;2023-09-18T03:27:29;15.60;99.90
28247;DHT22;66191;53.178;22.058;2023-09-18T03:30:09;15.60;99.90
28247;DHT22;66191;53.178;22.058;2023-09-18T03:32:47;15.60;99.90
28247;DHT22;66191;53.178;22.058;2023-09-18T03:35:30;15.60;99.90
28247;DHT22;66191;53.178;22.058;2023-09-18T03:38:05;15.70;99.90
28247;DHT22;66191;53.178;22.058;2023-09-18T03:40:40;15.70;99.90
28247;DHT22;66191;53.178;22.058;2023-09-18T03:43:16;15.70;99.90
28247;DHT22;66191;53.178;22.058;2023-09-18T03:45:50;15.70;99.90
28247;DHT22;66191;53.178;22.058;2023-09-18T03:48:37;15.70;99.90
28247;DHT22;66191;53.178;22.058;2023-09-18T03:51:16;15.70;99.90
28247;DHT22;66191;53.178;22.058;2023-09-18T03:53:51;15.70;99.90
28247;DHT22;66191;53.178;22.058;2023-09-18T03:56:23;15.70;99.90
28247;DHT22;66191;53.178;22.058;2023-09-18T03:59:00;15.60;99.90
28247;DHT22;66191;53.178;22.058;2023-09-18T04:01:33;15.60;99.90
28247;DHT22;66191;53.178;22.058;2023-09-18T04:04:05;15.60;99.90
28247;DHT22;66191;53.178;22.058;2023-09-18T04:06:45;15.60;99.90
28247;DHT22;66191;53.178;22.058;2023-09-18T04:09:19;15.70;99.90
28247;DHT22;66191;53.178;22.058;2023-09-18T04:11:55;15.70;99.90
28247;DHT22;66191;53.178;22.058;2023-09-18T04:14:32;15.70;99.90
28247;DHT22;66191;53.178;22.058;2023-09-18T04:17:05;15.80;99.90
28247;DHT22;66191;53.178;22.058;2023-09-18T04:19:38;15.80;99.90
28247;DHT22;66191;53.178;22.058;2023-09-18T04:22:14;15.90;99.90
28247;DHT22;66191;53.178;22.058;2023-09-18T04:24:55;15.90;99.90
28247;DHT22;66191;53.178;22.058;2023-09-18T04:27:28;16.00;99.90
28247;DHT22;66191;53.178;22.058;2023-09-18T04:30:05;16.00;99.90
28247;DHT22;66191;53.178;22.058;2023-09-18T04:32:44;16.10;99.90
28247;DHT22;66191;53.178;22.058;2023-09-18T04:35:23;16.10;99.90
28247;DHT22;66191;53.178;22.058;2023-09-18T04:37:56;16.10;99.90
28247;DHT22;66191;53.178;22.058;2023-09-18T04:40:33;16.10;99.90
28247;DHT22;66191;53.178;22.058;2023-09-18T04:43:15;16.10;99.90
28247;DHT22;66191;53.178;22.058;2023-09-18T04:45:54;16.10;99.90
28247;DHT22;66191;53.178;22.058;2023-09-18T04:48:27;16.10;99.90
28247;DHT22;66191;53.178;22.058;2023-09-18T04:51:02;16.10;99.90
28247;DHT22;66191;53.178;22.058;2023-09-18T04:53:36;16.10;99.90
28247;DHT22;66191;53.178;22.058;2023-09-18T04:56:07;16.20;99.90
28247;DHT22;66191;53.178;22.058;2023-09-18T04:58:44;16.20;99.90
28247;DHT22;66191;53.178;22.058;2023-09-18T05:01:25;16.30;99.90
28247;DHT22;66191;53.178;22.058;2023-09-18T05:04:03;16.30;99.90
28247;DHT22;66191;53.178;22.058;2023-09-18T05:06:37;16.40;99.90
28247;DHT22;66191;53.178;22.058;2023-09-18T05:09:23;16.40;99.90
28247;DHT22;66191;53.178;22.058;2023-09-18T05:12:01;16.50;99.90
28247;DHT22;66191;53.178;22.058;2023-09-18T05:15:02;16.50;99.90
28247;DHT22;66191;53.178;22.058;2023-09-18T05:17:46;16.50;99.90
28247;DHT22;66191;53.178;22.058;2023-09-18T05:20:24;16.60;99.90
28247;DHT22;66191;53.178;22.058;2023-09-18T05:23:00;16.70;99.90
28247;DHT22;66191;53.178;22.058;2023-09-18T05:25:33;16.70;99.90
28247;DHT22;66191;53.178;22.058;2023-09-18T05:28:06;16.80;99.90
28247;DHT22;66191;53.178;22.058;2023-09-18T05:30:42;16.90;99.90
28247;DHT22;66191;53.178;22.058;2023-09-18T05:33:19;17.00;99.90
28247;DHT22;66191;53.178;22.058;2023-09-18T05:35:51;17.10;99.90
28247;DHT22;66191;53.178;22.058;2023-09-18T05:38:23;17.10;99.90
28247;DHT22;66191;53.178;22.058;2023-09-18T05:40:58;17.20;99.90
28247;DHT22;66191;53.178;22.058;2023-09-18T05:43:36;17.30;99.90
28247;DHT22;66191;53.178;22.058;2023-09-18T05:46:30;17.30;99.90
28247;DHT22;66191;53.178;22.058;2023-09-18T05:49:12;17.40;99.90
28247;DHT22;66191;53.178;22.058;2023-09-18T05:51:52;17.60;99.90
28247;DHT22;66191;53.178;22.058;2023-09-18T05:54:24;17.60;99.90
28247;DHT22;66191;53.178;22.058;2023-09-18T05:57:03;17.70;99.90
28247;DHT22;66191;53.178;22.058;2023-09-18T05:59:37;17.80;99.90
28247;DHT22;66191;53.178;22.058;2023-09-18T06:02:12;17.90;99.90
28247;DHT22;66191;53.178;22.058;2023-09-18T06:04:50;18.00;99.90
28247;DHT22;66191;53.178;22.058;2023-09-18T06:07:55;18.10;99.90
28247;DHT22;66191;53.178;22.058;2023-09-18T06:10:47;18.20;99.90
28247;DHT22;66191;53.178;22.058;2023-09-18T06:13:24;18.30;99.90
28247;DHT22;66191;53.178;22.058;2023-09-18T06:16:02;18.30;99.90
28247;DHT22;66191;53.178;22.058;2023-09-18T06:18:37;18.40;99.90
28247;DHT22;66191;53.178;22.058;2023-09-18T06:21:17;18.50;99.90
28247;DHT22;66191;53.178;22.058;2023-09-18T06:23:50;18.50;99.90
28247;DHT22;66191;53.178;22.058;2023-09-18T06:26:29;18.60;99.90
28247;DHT22;66191;53.178;22.058;2023-09-18T06:29:10;18.70;99.90
28247;DHT22;66191;53.178;22.058;2023-09-18T06:31:50;18.80;99.90
28247;DHT22;66191;53.178;22.058;2023-09-18T06:34:40;18.80;99.90
28247;DHT22;66191;53.178;22.058;2023-09-18T06:37:43;18.90;99.90
28247;DHT22;66191;53.178;22.058;2023-09-18T06:40:17;19.00;99.90
28247;DHT22;66191;53.178;22.058;2023-09-18T06:42:48;19.00;99.90
28247;DHT22;66191;53.178;22.058;2023-09-18T06:45:23;19.10;99.90
28247;DHT22;66191;53.178;22.058;2023-09-18T06:47:56;19.20;99.90
28247;DHT22;66191;53.178;22.058;2023-09-18T06:50:31;19.30;99.90
28247;DHT22;66191;53.178;22.058;2023-09-18T06:53:07;19.30;99.90
28247;DHT22;66191;53.178;22.058;2023-09-18T06:55:45;19.40;99.90
28247;DHT22;66191;53.178;22.058;2023-09-18T06:58:17;19.50;99.90
28247;DHT22;66191;53.178;22.058;2023-09-18T07:00:52;19.60;99.90
28247;DHT22;66191;53.178;22.058;2023-09-18T07:03:28;19.70;99.90
28247;DHT22;66191;53.178;22.058;2023-09-18T07:06:01;19.70;99.90
28247;DHT22;66191;53.178;22.058;2023-09-18T07:08:38;19.80;99.90
28247;DHT22;66191;53.178;22.058;2023-09-18T07:11:10;19.90;99.90
28247;DHT22;66191;53.178;22.058;2023-09-18T07:13:48;20.00;99.90
28247;DHT22;66191;53.178;22.058;2023-09-18T07:16:23;20.00;99.90
28247;DHT22;66191;53.178;22.058;2023-09-18T07:18:55;20.10;99.90
28247;DHT22;66191;53.178;22.058;2023-09-18T07:21:29;20.20;99.90
28247;DHT22;66191;53.178;22.058;2023-09-18T07:24:07;20.20;99.90
28247;DHT22;66191;53.178;22.058;2023-09-18T07:26:48;20.30;99.90
28247;DHT22;66191;53.178;22.058;2023-09-18T07:29:32;20.30;99.90
28247;DHT22;66191;53.178;22.058;2023-09-18T07:32:13;20.40;99.90
28247;DHT22;66191;53.178;22.058;2023-09-18T07:35:10;20.50;99.90
28247;DHT22;66191;53.178;22.058;2023-09-18T07:37:48;20.60;99.90
28247;DHT22;66191;53.178;22.058;2023-09-18T07:40:28;20.70;99.90
28247;DHT22;66191;53.178;22.058;2023-09-18T07:43:00;20.80;99.90
28247;DHT22;66191;53.178;22.058;2023-09-18T07:45:33;20.80;99.90
28247;DHT22;66191;53.178;22.058;2023-09-18T07:48:07;20.90;99.90
28247;DHT22;66191;53.178;22.058;2023-09-18T07:50:43;21.00;99.90
28247;DHT22;66191;53.178;22.058;2023-09-18T07:53:19;21.00;99.60
28247;DHT22;66191;53.178;22.058;2023-09-18T07:55:59;21.10;99.50
28247;DHT22;66191;53.178;22.058;2023-09-18T07:58:35;21.10;99.10
28247;DHT22;66191;53.178;22.058;2023-09-18T08:01:17;21.10;99.00
28247;DHT22;66191;53.178;22.058;2023-09-18T08:03:52;21.00;98.80
28247;DHT22;66191;53.178;22.058;2023-09-18T08:06:27;21.00;98.80
28247;DHT22;66191;53.178;22.058;2023-09-18T08:09:02;21.00;98.70
28247;DHT22;66191;53.178;22.058;2023-09-18T08:11:40;21.00;98.70
28247;DHT22;66191;53.178;22.058;2023-09-18T08:14:16;21.00;98.70
28247;DHT22;66191;53.178;22.058;2023-09-18T08:17:00;21.00;98.80
28247;DHT22;66191;53.178;22.058;2023-09-18T08:19:35;21.00;98.80
28247;DHT22;66191;53.178;22.058;2023-09-18T08:22:09;21.10;98.80
28247;DHT22;66191;53.178;22.058;2023-09-18T08:24:46;21.10;98.80
28247;DHT22;66191;53.178;22.058;2023-09-18T08:27:23;21.20;98.90
28247;DHT22;66191;53.178;22.058;2023-09-18T08:29:59;21.20;98.50
28247;DHT22;66191;53.178;22.058;2023-09-18T08:32:34;21.20;98.60
28247;DHT22;66191;53.178;22.058;2023-09-18T08:35:09;21.30;98.70
28247;DHT22;66191;53.178;22.058;2023-09-18T08:37:40;21.30;98.70
28247;DHT22;66191;53.178;22.058;2023-09-18T08:40:16;21.40;98.70
28247;DHT22;66191;53.178;22.058;2023-09-18T08:42:52;21.40;98.70
28247;DHT22;66191;53.178;22.058;2023-09-18T08:45:35;21.50;98.50
28247;DHT22;66191;53.178;22.058;2023-09-18T08:48:08;21.50;98.60
28247;DHT22;66191;53.178;22.058;2023-09-18T08:50:41;21.60;98.70
28247;DHT22;66191;53.178;22.058;2023-09-18T08:53:12;21.60;98.80
28247;DHT22;66191;53.178;22.058;2023-09-18T08:55:45;21.70;98.50
28247;DHT22;66191;53.178;22.058;2023-09-18T08:58:19;21.70;98.50
28247;DHT22;66191;53.178;22.058;2023-09-18T09:00:52;21.90;98.40
28247;DHT22;66191;53.178;22.058;2023-09-18T09:03:27;22.00;98.20
28247;DHT22;66191;53.178;22.058;2023-09-18T09:06:03;22.10;97.40
28247;DHT22;66191;53.178;22.058;2023-09-18T09:08:37;22.20;97.60
28247;DHT22;66191;53.178;22.058;2023-09-18T09:11:08;22.30;97.40
28247;DHT22;66191;53.178;22.058;2023-09-18T09:13:44;22.40;97.20
28247;DHT22;66191;53.178;22.058;2023-09-18T09:16:21;22.50;96.80
28247;DHT22;66191;53.178;22.058;2023-09-18T09:18:54;22.50;96.30
28247;DHT22;66191;53.178;22.058;2023-09-18T09:21:38;22.60;96.20
28247;DHT22;66191;53.178;22.058;2023-09-18T09:24:16;22.70;95.70
28247;DHT22;66191;53.178;22.058;2023-09-18T09:26:58;22.70;95.70
28247;DHT22;66191;53.178;22.058;2023-09-18T09:29:34;22.70;95.30
28247;DHT22;66191;53.178;22.058;2023-09-18T09:32:13;22.70;94.80
28247;DHT22;66191;53.178;22.058;2023-09-18T09:34:45;22.80;94.50
28247;DHT22;66191;53.178;22.058;2023-09-18T09:37:18;22.80;94.40
28247;DHT22;66191;53.178;22.058;2023-09-18T09:40:03;22.80;94.10
28247;DHT22;66191;53.178;22.058;2023-09-18T09:42:49;22.90;93.70
28247;DHT22;66191;53.178;22.058;2023-09-18T09:45:29;23.00;93.80
28247;DHT22;66191;53.178;22.058;2023-09-18T09:48:08;23.10;93.30
28247;DHT22;66191;53.178;22.058;2023-09-18T09:50:46;23.20;93.30
28247;DHT22;66191;53.178;22.058;2023-09-18T09:53:19;23.20;93.30
28247;DHT22;66191;53.178;22.058;2023-09-18T09:55:57;23.30;93.20
28247;DHT22;66191;53.178;22.058;2023-09-18T09:58:41;23.40;93.00
28247;DHT22;66191;53.178;22.058;2023-09-18T10:01:22;23.50;91.90
28247;DHT22;66191;53.178;22.058;2023-09-18T10:03:57;23.50;92.40
28247;DHT22;66191;53.178;22.058;2023-09-18T10:06:33;23.70;92.30
28247;DHT22;66191;53.178;22.058;2023-09-18T10:09:08;23.70;92.10
28247;DHT22;66191;53.178;22.058;2023-09-18T10:11:45;23.80;91.70
28247;DHT22;66191;53.178;22.058;2023-09-18T10:14:19;23.90;91.70
28247;DHT22;66191;53.178;22.058;2023-09-18T10:16:56;24.00;91.00
28247;DHT22;66191;53.178;22.058;2023-09-18T10:19:34;24.10;90.70
28247;DHT22;66191;53.178;22.058;2023-09-18T10:22:22;24.10;90.50
28247;DHT22;66191;53.178;22.058;2023-09-18T10:24:57;24.20;90.00
28247;DHT22;66191;53.178;22.058;2023-09-18T10:27:30;24.30;90.10
28247;DHT22;66191;53.178;22.058;2023-09-18T10:30:04;24.30;90.00
28247;DHT22;66191;53.178;22.058;2023-09-18T10:32:41;24.40;89.60
28247;DHT22;66191;53.178;22.058;2023-09-18T10:35:19;24.40;89.10
28247;DHT22;66191;53.178;22.058;2023-09-18T10:37:52;24.40;88.80
28247;DHT22;66191;53.178;22.058;2023-09-18T10:40:26;24.40;88.90
28247;DHT22;66191;53.178;22.058;2023-09-18T10:43:04;24.50;88.90
28247;DHT22;66191;53.178;22.058;2023-09-18T10:45:38;24.60;88.70
28247;DHT22;66191;53.178;22.058;2023-09-18T10:48:16;24.60;88.00
28247;DHT22;66191;53.178;22.058;2023-09-18T10:50:54;24.70;86.50
28247;DHT22;66191;53.178;22.058;2023-09-18T10:53:29;24.70;86.50
28247;DHT22;66191;53.178;22.058;2023-09-18T10:56:02;24.80;86.50
28247;DHT22;66191;53.178;22.058;2023-09-18T10:58:38;24.80;86.20
28247;DHT22;66191;53.178;22.058;2023-09-18T11:01:24;24.90;86.00
28247;DHT22;66191;53.178;22.058;2023-09-18T11:04:04;24.90;85.80
28247;DHT22;66191;53.178;22.058;2023-09-18T11:07:06;25.00;84.60
28247;DHT22;66191;53.178;22.058;2023-09-18T11:09:44;25.10;84.00
28247;DHT22;66191;53.178;22.058;2023-09-18T11:12:16;25.10;83.20
28247;DHT22;66191;53.178;22.058;2023-09-18T11:15:02;25.10;83.30
28247;DHT22;66191;53.178;22.058;2023-09-18T11:17:37;25.10;83.50
28247;DHT22;66191;53.178;22.058;2023-09-18T11:20:28;25.20;83.00
28247;DHT22;66191;53.178;22.058;2023-09-18T11:23:16;25.30;81.60
28247;DHT22;66191;53.178;22.058;2023-09-18T11:25:55;25.30;81.40
28247;DHT22;66191;53.178;22.058;2023-09-18T11:28:30;25.30;81.70
28247;DHT22;66191;53.178;22.058;2023-09-18T11:31:06;25.40;81.00
28247;DHT22;66191;53.178;22.058;2023-09-18T11:33:46;25.40;80.30
28247;DHT22;66191;53.178;22.058;2023-09-18T11:36:31;25.50;80.60
28247;DHT22;66191;53.178;22.058;2023-09-18T11:39:06;25.50;79.60
28247;DHT22;66191;53.178;22.058;2023-09-18T11:41:43;25.60;80.30
28247;DHT22;66191;53.178;22.058;2023-09-18T11:44:33;25.70;79.20
28247;DHT22;66191;53.178;22.058;2023-09-18T11:47:11;25.70;78.90
28247;DHT22;66191;53.178;22.058;2023-09-18T11:49:56;25.80;79.40
28247;DHT22;66191;53.178;22.058;2023-09-18T11:52:35;25.80;78.30
28247;DHT22;66191;53.178;22.058;2023-09-18T11:55:12;25.90;78.40
28247;DHT22;66191;53.178;22.058;2023-09-18T11:57:45;25.90;78.90
28247;DHT22;66191;53.178;22.058;2023-09-18T12:00:26;25.90;78.70
28247;DHT22;66191;53.178;22.058;2023-09-18T12:03:00;25.90;79.50
28247;DHT22;66191;53.178;22.058;2023-09-18T12:05:46;25.90;78.40
28247;DHT22;66191;53.178;22.058;2023-09-18T12:08:30;25.90;78.00
28247;DHT22;66191;53.178;22.058;2023-09-18T12:11:08;25.90;77.50
28247;DHT22;66191;53.178;22.058;2023-09-18T12:13:53;26.00;78.20
28247;DHT22;66191;53.178;22.058;2023-09-18T12:16:29;26.00;78.30
28247;DHT22;66191;53.178;22.058;2023-09-18T12:19:05;26.10;77.90
28247;DHT22;66191;53.178;22.058;2023-09-18T12:21:40;26.10;77.90
28247;DHT22;66191;53.178;22.058;2023-09-18T12:24:20;26.10;77.80
28247;DHT22;66191;53.178;22.058;2023-09-18T12:26:55;26.20;77.70
28247;DHT22;66191;53.178;22.058;2023-09-18T12:29:42;26.30;77.00
28247;DHT22;66191;53.178;22.058;2023-09-18T12:32:14;26.20;76.40
28247;DHT22;66191;53.178;22.058;2023-09-18T12:34:45;26.20;76.80
28247;DHT22;66191;53.178;22.058;2023-09-18T12:37:17;26.20;76.70
28247;DHT22;66191;53.178;22.058;2023-09-18T12:39:54;26.20;76.40
28247;DHT22;66191;53.178;22.058;2023-09-18T12:45:44;26.30;76.70
28247;DHT22;66191;53.178;22.058;2023-09-18T12:48:20;26.40;76.60
28247;DHT22;66191;53.178;22.058;2023-09-18T12:55:27;26.40;75.60
28247;DHT22;66191;53.178;22.058;2023-09-18T12:58:01;26.40;75.50
28247;DHT22;66191;53.178;22.058;2023-09-18T13:00:44;26.50;75.00
28247;DHT22;66191;53.178;22.058;2023-09-18T13:03:25;26.60;75.20
28247;DHT22;66191;53.178;22.058;2023-09-18T13:06:07;26.60;75.10
28247;DHT22;66191;53.178;22.058;2023-09-18T13:08:49;26.70;74.30
28247;DHT22;66191;53.178;22.058;2023-09-18T13:11:29;26.60;74.10
28247;DHT22;66191;53.178;22.058;2023-09-18T13:14:18;26.60;74.40
28247;DHT22;66191;53.178;22.058;2023-09-18T13:16:59;26.50;74.60
28247;DHT22;66191;53.178;22.058;2023-09-18T13:19:42;26.50;75.00
28247;DHT22;66191;53.178;22.058;2023-09-18T13:22:25;26.40;74.80
28247;DHT22;66191;53.178;22.058;2023-09-18T13:25:28;26.40;73.70
28247;DHT22;66191;53.178;22.058;2023-09-18T13:28:07;26.40;73.80
28247;DHT22;66191;53.178;22.058;2023-09-18T13:30:40;26.40;72.90
28247;DHT22;66191;53.178;22.058;2023-09-18T13:33:21;26.50;73.10
28247;DHT22;66191;53.178;22.058;2023-09-18T13:35:54;26.50;72.90
28247;DHT22;66191;53.178;22.058;2023-09-18T13:38:41;26.50;72.60
28247;DHT22;66191;53.178;22.058;2023-09-18T13:42:06;26.50;72.70
28247;DHT22;66191;53.178;22.058;2023-09-18T13:45:22;26.40;72.40
28247;DHT22;66191;53.178;22.058;2023-09-18T13:47:58;26.40;73.40
28247;DHT22;66191;53.178;22.058;2023-09-18T13:50:43;26.40;73.90
28247;DHT22;66191;53.178;22.058;2023-09-18T13:53:33;26.40;74.20
28247;DHT22;66191;53.178;22.058;2023-09-18T13:56:09;26.50;74.20
28247;DHT22;66191;53.178;22.058;2023-09-18T13:58:41;26.50;73.80
28247;DHT22;66191;53.178;22.058;2023-09-18T14:01:16;26.50;73.30
28247;DHT22;66191;53.178;22.058;2023-09-18T14:03:51;26.50;73.40
28247;DHT22;66191;53.178;22.058;2023-09-18T14:06:28;26.50;73.10
28247;DHT22;66191;53.178;22.058;2023-09-18T14:09:27;26.50;72.50
28247;DHT22;66191;53.178;22.058;2023-09-18T14:12:11;26.50;72.60
28247;DHT22;66191;53.178;22.058;2023-09-18T14:15:01;26.40;72.70
28247;DHT22;66191;53.178;22.058;2023-09-18T14:17:41;26.40;72.40
28247;DHT22;66191;53.178;22.058;2023-09-18T14:20:16;26.30;72.30
28247;DHT22;66191;53.178;22.058;2023-09-18T14:22:54;26.30;72.50
28247;DHT22;66191;53.178;22.058;2023-09-18T14:25:57;26.30;72.60
28247;DHT22;66191;53.178;22.058;2023-09-18T14:28:40;26.20;72.60
28247;DHT22;66191;53.178;22.058;2023-09-18T14:31:13;26.20;72.70
28247;DHT22;66191;53.178;22.058;2023-09-18T14:34:01;26.10;72.60
28247;DHT22;66191;53.178;22.058;2023-09-18T14:36:35;26.10;72.80
28247;DHT22;66191;53.178;22.058;2023-09-18T14:39:07;26.20;72.90
28247;DHT22;66191;53.178;22.058;2023-09-18T14:41:48;26.10;72.50
28247;DHT22;66191;53.178;22.058;2023-09-18T14:44:39;26.10;72.50
28247;DHT22;66191;53.178;22.058;2023-09-18T14:47:19;26.10;72.70
28247;DHT22;66191;53.178;22.058;2023-09-18T14:49:55;26.10;72.60
28247;DHT22;66191;53.178;22.058;2023-09-18T14:52:33;26.10;73.00
28247;DHT22;66191;53.178;22.058;2023-09-18T14:55:08;26.10;73.10
28247;DHT22;66191;53.178;22.058;2023-09-18T14:57:46;26.00;72.60
28247;DHT22;66191;53.178;22.058;2023-09-18T15:00:31;26.00;72.40
28247;DHT22;66191;53.178;22.058;2023-09-18T15:03:10;26.00;72.30
28247;DHT22;66191;53.178;22.058;2023-09-18T15:05:45;25.90;72.50
28247;DHT22;66191;53.178;22.058;2023-09-18T15:08:19;25.90;72.30
28247;DHT22;66191;53.178;22.058;2023-09-18T15:11:15;25.80;72.30
28247;DHT22;66191;53.178;22.058;2023-09-18T15:14:07;25.80;72.30
28247;DHT22;66191;53.178;22.058;2023-09-18T15:17:07;25.80;72.60
28247;DHT22;66191;53.178;22.058;2023-09-18T15:19:55;25.80;72.20
28247;DHT22;66191;53.178;22.058;2023-09-18T15:23:56;25.70;72.60
28247;DHT22;66191;53.178;22.058;2023-09-18T15:26:22;25.70;72.90
28247;DHT22;66191;53.178;22.058;2023-09-18T15:28:56;25.60;72.80
28247;DHT22;66191;53.178;22.058;2023-09-18T15:31:38;25.60;72.80
28247;DHT22;66191;53.178;22.058;2023-09-18T15:34:39;25.50;73.00
28247;DHT22;66191;53.178;22.058;2023-09-18T15:37:27;25.50;73.10
28247;DHT22;66191;53.178;22.058;2023-09-18T15:40:26;25.50;73.20
28247;DHT22;66191;53.178;22.058;2023-09-18T15:43:02;25.40;73.20
28247;DHT22;66191;53.178;22.058;2023-09-18T15:45:36;25.30;73.50
28247;DHT22;66191;53.178;22.058;2023-09-18T15:48:14;25.30;73.60
28247;DHT22;66191;53.178;22.058;2023-09-18T15:50:45;25.30;73.70
28247;DHT22;66191;53.178;22.058;2023-09-18T15:53:20;25.20;73.60
28247;DHT22;66191;53.178;22.058;2023-09-18T15:55:57;25.20;73.90
28247;DHT22;66191;53.178;22.058;2023-09-18T15:58:29;25.20;74.10
28247;DHT22;66191;53.178;22.058;2023-09-18T16:01:02;25.10;74.10
28247;DHT22;66191;53.178;22.058;2023-09-18T16:03:39;25.10;74.20
28247;DHT22;66191;53.178;22.058;2023-09-18T16:06:22;25.10;74.40
28247;DHT22;66191;53.178;22.058;2023-09-18T16:08:54;25.00;74.50
28247;DHT22;66191;53.178;22.058;2023-09-18T16:11:39;25.00;74.80
28247;DHT22;66191;53.178;22.058;2023-09-18T16:14:18;24.90;75.00
28247;DHT22;66191;53.178;22.058;2023-09-18T16:16:52;24.90;75.30
28247;DHT22;66191;53.178;22.058;2023-09-18T16:19:30;24.90;75.30
28247;DHT22;66191;53.178;22.058;2023-09-18T16:22:04;24.80;75.50
28247;DHT22;66191;53.178;22.058;2023-09-18T16:24:39;24.70;75.70
28247;DHT22;66191;53.178;22.058;2023-09-18T16:27:13;24.70;75.70
28247;DHT22;66191;53.178;22.058;2023-09-18T16:29:47;24.60;76.00
28247;DHT22;66191;53.178;22.058;2023-09-18T16:32:24;24.50;76.10